LNI608 WAAA-WAFF
Flight info
| Callsign | LNI608 |
|---|---|
| Flight time | 0h 51m |
| Altitude | 33000 |
| Route | NIVEK |
| Aircraft | B739/M-SDE2E3FGHIRWXY/LB1 |
Departure
| Time | 2026-04-20 21:07 |
|---|---|
| Airport | Sultan Hasanuddin International Airport (WAAA) |
Arrival
| Time | 2026-04-20 21:58 |
|---|---|
| Airport | Mutiara - SIS Al-Jufrie Airport (WAFF) |
| Time | Latitude | Longitude | Altitude | Speed | Heading |
|---|---|---|---|---|---|
| 2026-04-20 20:58 | -5.07658 | 119.54795 | 40 ft | 1 kts | 299° |
| 2026-04-20 20:59 | -5.07668 | 119.54812 | 40 ft | 4 kts | 306° |
| 2026-04-20 20:59 | -5.07686 | 119.54833 | 40 ft | 4 kts | 322° |
| 2026-04-20 20:59 | -5.07708 | 119.54845 | 39 ft | 4 kts | 360° |
| 2026-04-20 21:00 | -5.07721 | 119.54843 | 40 ft | 0 kts | 30° |
| 2026-04-20 21:02 | -5.07704 | 119.54853 | 40 ft | 8 kts | 30° |
| 2026-04-20 21:02 | -5.07655 | 119.54881 | 40 ft | 8 kts | 30° |
| 2026-04-20 21:02 | -5.07608 | 119.54911 | 40 ft | 8 kts | 44° |
| 2026-04-20 21:02 | -5.07585 | 119.54959 | 39 ft | 8 kts | 76° |
| 2026-04-20 21:03 | -5.07582 | 119.55010 | 40 ft | 7 kts | 98° |
| 2026-04-20 21:03 | -5.07603 | 119.55063 | 40 ft | 9 kts | 114° |
| 2026-04-20 21:03 | -5.07620 | 119.55124 | 40 ft | 9 kts | 70° |
| 2026-04-20 21:03 | -5.07568 | 119.55162 | 40 ft | 9 kts | 32° |
| 2026-04-20 21:04 | -5.07515 | 119.55196 | 40 ft | 9 kts | 32° |
| 2026-04-20 21:04 | -5.07462 | 119.55226 | 40 ft | 9 kts | 28° |
| 2026-04-20 21:04 | -5.07400 | 119.55260 | 40 ft | 11 kts | 28° |
| 2026-04-20 21:04 | -5.07333 | 119.55296 | 40 ft | 11 kts | 27° |
| 2026-04-20 21:05 | -5.07267 | 119.55329 | 40 ft | 10 kts | 27° |
| 2026-04-20 21:05 | -5.07211 | 119.55374 | 40 ft | 11 kts | 59° |
| 2026-04-20 21:05 | -5.07237 | 119.55432 | 39 ft | 10 kts | 162° |
| 2026-04-20 21:05 | -5.07308 | 119.55430 | 39 ft | 10 kts | 183° |
| 2026-04-20 21:06 | -5.07366 | 119.55459 | 38 ft | 10 kts | 137° |
| 2026-04-20 21:06 | -5.07429 | 119.55442 | 39 ft | 16 kts | 211° |
| 2026-04-20 21:06 | -5.07742 | 119.55261 | 41 ft | 89 kts | 210° |
| 2026-04-20 21:06 | -5.08472 | 119.54841 | 40 ft | 150 kts | 210° |
| 2026-04-20 21:07 | -5.09478 | 119.54253 | 338 ft | 174 kts | 211° |
| 2026-04-20 21:07 | -5.10515 | 119.53640 | 1010 ft | 179 kts | 211° |
| 2026-04-20 21:07 | -5.11646 | 119.52988 | 1436 ft | 199 kts | 210° |
| 2026-04-20 21:07 | -5.12917 | 119.52232 | 1652 ft | 225 kts | 219° |
| 2026-04-20 21:08 | -5.13765 | 119.50855 | 1920 ft | 243 kts | 260° |
| 2026-04-20 21:08 | -5.13851 | 119.49113 | 2238 ft | 262 kts | 274° |
| 2026-04-20 21:08 | -5.13329 | 119.47360 | 2895 ft | 267 kts | 307° |
| 2026-04-20 21:08 | -5.12074 | 119.45996 | 3740 ft | 268 kts | 317° |
| 2026-04-20 21:09 | -5.10717 | 119.44695 | 4506 ft | 273 kts | 317° |
| 2026-04-20 21:09 | -5.09330 | 119.43374 | 5280 ft | 276 kts | 317° |
| 2026-04-20 21:09 | -5.07937 | 119.42035 | 6067 ft | 279 kts | 317° |
| 2026-04-20 21:09 | -5.06535 | 119.40670 | 6793 ft | 283 kts | 317° |
| 2026-04-20 21:10 | -5.05121 | 119.39279 | 7492 ft | 286 kts | 316° |
| 2026-04-20 21:10 | -5.03698 | 119.37867 | 8201 ft | 290 kts | 316° |
| 2026-04-20 21:10 | -5.02260 | 119.36434 | 8914 ft | 293 kts | 316° |
| 2026-04-20 21:10 | -5.00811 | 119.34981 | 9627 ft | 297 kts | 316° |
| 2026-04-20 21:11 | -4.99341 | 119.33505 | 10214 ft | 304 kts | 316° |
| 2026-04-20 21:11 | -4.97788 | 119.31943 | 10366 ft | 327 kts | 315° |
| 2026-04-20 21:11 | -4.96128 | 119.30272 | 10505 ft | 348 kts | 315° |
| 2026-04-20 21:11 | -4.94384 | 119.28513 | 10770 ft | 362 kts | 315° |
| 2026-04-20 21:12 | -4.92594 | 119.26706 | 11272 ft | 367 kts | 315° |
| 2026-04-20 21:12 | -4.90790 | 119.24884 | 11871 ft | 369 kts | 315° |
| 2026-04-20 21:12 | -4.88973 | 119.23049 | 12448 ft | 372 kts | 315° |
| 2026-04-20 21:12 | -4.87140 | 119.21197 | 12998 ft | 376 kts | 315° |
| 2026-04-20 21:13 | -4.85292 | 119.19330 | 13546 ft | 379 kts | 315° |
| 2026-04-20 21:13 | -4.83423 | 119.17444 | 14040 ft | 382 kts | 315° |
| 2026-04-20 21:13 | -4.81545 | 119.15547 | 14514 ft | 385 kts | 315° |
| 2026-04-20 21:13 | -4.79651 | 119.13635 | 14988 ft | 388 kts | 315° |
| 2026-04-20 21:14 | -4.77741 | 119.11708 | 15443 ft | 391 kts | 315° |
| 2026-04-20 21:14 | -4.75817 | 119.09765 | 15887 ft | 394 kts | 315° |
| 2026-04-20 21:14 | -4.73877 | 119.07808 | 16345 ft | 397 kts | 315° |
| 2026-04-20 21:14 | -4.71923 | 119.05836 | 16786 ft | 400 kts | 315° |
| 2026-04-20 21:15 | -4.69953 | 119.03848 | 17218 ft | 403 kts | 315° |
| 2026-04-20 21:15 | -4.67957 | 119.01860 | 17641 ft | 406 kts | 318° |
| 2026-04-20 21:15 | -4.65647 | 119.00237 | 18058 ft | 408 kts | 334° |
| 2026-04-20 21:15 | -4.62973 | 118.99289 | 18449 ft | 409 kts | 348° |
| 2026-04-20 21:16 | -4.60197 | 118.98859 | 18822 ft | 411 kts | 353° |
| 2026-04-20 21:16 | -4.57356 | 118.98481 | 19172 ft | 413 kts | 353° |
| 2026-04-20 21:16 | -4.54492 | 118.98102 | 19507 ft | 416 kts | 353° |
| 2026-04-20 21:16 | -4.51616 | 118.97714 | 19855 ft | 418 kts | 352° |
| 2026-04-20 21:17 | -4.48726 | 118.97316 | 20204 ft | 420 kts | 352° |
| 2026-04-20 21:17 | -4.45821 | 118.96909 | 20542 ft | 423 kts | 352° |
| 2026-04-20 21:17 | -4.42906 | 118.96495 | 20872 ft | 425 kts | 352° |
| 2026-04-20 21:17 | -4.39967 | 118.96075 | 21192 ft | 427 kts | 352° |
| 2026-04-20 21:18 | -4.37024 | 118.95653 | 21511 ft | 429 kts | 352° |
| 2026-04-20 21:18 | -4.34058 | 118.95227 | 21802 ft | 432 kts | 352° |
| 2026-04-20 21:18 | -4.31066 | 118.94798 | 22097 ft | 435 kts | 352° |
| 2026-04-20 21:18 | -4.28067 | 118.94367 | 22408 ft | 436 kts | 352° |
| 2026-04-20 21:19 | -4.25055 | 118.93935 | 22713 ft | 438 kts | 352° |
| 2026-04-20 21:19 | -4.22031 | 118.93501 | 22999 ft | 440 kts | 352° |
| 2026-04-20 21:19 | -4.18990 | 118.93064 | 23276 ft | 443 kts | 352° |
| 2026-04-20 21:20 | -4.12866 | 118.92186 | 23761 ft | 446 kts | 352° |
| 2026-04-20 21:20 | -4.09792 | 118.91745 | 24010 ft | 447 kts | 352° |
| 2026-04-20 21:20 | -4.06712 | 118.91304 | 24254 ft | 448 kts | 352° |
| 2026-04-20 21:20 | -4.03626 | 118.90861 | 24487 ft | 449 kts | 352° |
| 2026-04-20 21:21 | -4.00522 | 118.90416 | 24718 ft | 451 kts | 352° |
| 2026-04-20 21:21 | -3.97416 | 118.89971 | 24930 ft | 452 kts | 352° |
| 2026-04-20 21:21 | -3.94298 | 118.89524 | 25139 ft | 454 kts | 352° |
| 2026-04-20 21:21 | -3.91175 | 118.89076 | 25465 ft | 448 kts | 352° |
| 2026-04-20 21:22 | -3.88155 | 118.88643 | 25898 ft | 429 kts | 352° |
| 2026-04-20 21:22 | -3.85250 | 118.88226 | 26345 ft | 418 kts | 352° |
| 2026-04-20 21:22 | -3.82376 | 118.87814 | 26817 ft | 415 kts | 352° |
| 2026-04-20 21:22 | -3.79529 | 118.87406 | 27291 ft | 412 kts | 352° |
| 2026-04-20 21:23 | -3.76696 | 118.87001 | 27773 ft | 409 kts | 353° |
| 2026-04-20 21:23 | -3.73887 | 118.86598 | 28267 ft | 406 kts | 353° |
| 2026-04-20 21:23 | -3.71099 | 118.86199 | 28765 ft | 403 kts | 353° |
| 2026-04-20 21:23 | -3.68340 | 118.85803 | 29271 ft | 400 kts | 353° |
| 2026-04-20 21:24 | -3.65593 | 118.85410 | 29791 ft | 396 kts | 353° |
| 2026-04-20 21:24 | -3.62875 | 118.85020 | 30248 ft | 393 kts | 353° |
| 2026-04-20 21:24 | -3.60174 | 118.84633 | 30599 ft | 392 kts | 353° |
| 2026-04-20 21:24 | -3.57475 | 118.84247 | 30941 ft | 391 kts | 353° |
| 2026-04-20 21:25 | -3.54784 | 118.83862 | 31282 ft | 390 kts | 353° |
| 2026-04-20 21:25 | -3.52080 | 118.83475 | 31474 ft | 394 kts | 353° |
| 2026-04-20 21:25 | -3.49356 | 118.83085 | 31675 ft | 397 kts | 353° |
| 2026-04-20 21:25 | -3.46608 | 118.82692 | 31877 ft | 401 kts | 353° |
| 2026-04-20 21:26 | -3.43842 | 118.82297 | 32080 ft | 404 kts | 353° |
| 2026-04-20 21:26 | -3.41043 | 118.81896 | 32278 ft | 407 kts | 353° |
| 2026-04-20 21:26 | -3.38233 | 118.81494 | 32478 ft | 409 kts | 353° |
| 2026-04-20 21:26 | -3.35402 | 118.81088 | 32679 ft | 412 kts | 353° |
| 2026-04-20 21:27 | -3.32556 | 118.80681 | 32855 ft | 415 kts | 353° |
| 2026-04-20 21:27 | -3.26773 | 118.79853 | 32873 ft | 424 kts | 353° |
| 2026-04-20 21:28 | -3.20859 | 118.79009 | 32881 ft | 434 kts | 353° |
| 2026-04-20 21:28 | -3.14827 | 118.78147 | 32877 ft | 442 kts | 353° |
| 2026-04-20 21:29 | -3.08685 | 118.77268 | 32866 ft | 449 kts | 353° |
| 2026-04-20 21:29 | -3.03511 | 118.76527 | 32869 ft | 455 kts | 353° |
| 2026-04-20 21:30 | -2.96169 | 118.75476 | 32872 ft | 462 kts | 353° |
| 2026-04-20 21:30 | -2.89770 | 118.74560 | 32870 ft | 467 kts | 353° |
| 2026-04-20 21:31 | -2.84363 | 118.73786 | 32871 ft | 471 kts | 353° |
| 2026-04-20 21:31 | -2.77854 | 118.72854 | 32862 ft | 473 kts | 353° |
| 2026-04-20 21:32 | -2.71321 | 118.71919 | 32857 ft | 475 kts | 353° |
| 2026-04-20 21:32 | -2.64777 | 118.71738 | 32861 ft | 470 kts | 15° |
| 2026-04-20 21:33 | -2.58663 | 118.73966 | 32861 ft | 467 kts | 23° |
| 2026-04-20 21:33 | -2.52664 | 118.76352 | 32849 ft | 466 kts | 22° |
| 2026-04-20 21:34 | -2.46631 | 118.78706 | 32850 ft | 465 kts | 22° |
| 2026-04-20 21:34 | -2.40595 | 118.81022 | 32854 ft | 464 kts | 22° |
| 2026-04-20 21:35 | -2.34579 | 118.83318 | 32856 ft | 462 kts | 22° |
| 2026-04-20 21:35 | -2.28572 | 118.85609 | 32858 ft | 461 kts | 22° |
| 2026-04-20 21:36 | -2.22579 | 118.87897 | 32860 ft | 461 kts | 22° |
| 2026-04-20 21:36 | -2.16590 | 118.90184 | 32857 ft | 461 kts | 22° |
| 2026-04-20 21:37 | -2.10594 | 118.92474 | 32857 ft | 461 kts | 22° |
| 2026-04-20 21:37 | -2.04606 | 118.94760 | 32859 ft | 461 kts | 22° |
| 2026-04-20 21:38 | -1.98598 | 118.97054 | 32862 ft | 462 kts | 21° |
| 2026-04-20 21:38 | -1.92591 | 118.99347 | 32860 ft | 463 kts | 21° |
| 2026-04-20 21:39 | -1.86577 | 119.01642 | 32858 ft | 463 kts | 21° |
| 2026-04-20 21:39 | -1.80549 | 119.03943 | 32860 ft | 464 kts | 21° |
| 2026-04-20 21:40 | -1.74516 | 119.06245 | 32691 ft | 467 kts | 21° |
| 2026-04-20 21:40 | -1.71490 | 119.07400 | 32432 ft | 465 kts | 21° |
| 2026-04-20 21:40 | -1.68475 | 119.08550 | 32192 ft | 463 kts | 21° |
| 2026-04-20 21:40 | -1.65465 | 119.09699 | 31953 ft | 464 kts | 21° |
| 2026-04-20 21:41 | -1.62491 | 119.10834 | 31701 ft | 463 kts | 21° |
| 2026-04-20 21:41 | -1.59449 | 119.11995 | 31097 ft | 460 kts | 21° |
| 2026-04-20 21:41 | -1.56514 | 119.13115 | 30577 ft | 456 kts | 21° |
| 2026-04-20 21:41 | -1.53562 | 119.14241 | 30034 ft | 452 kts | 21° |
| 2026-04-20 21:42 | -1.50629 | 119.15360 | 29399 ft | 450 kts | 21° |
| 2026-04-20 21:42 | -1.47721 | 119.16470 | 28808 ft | 445 kts | 22° |
| 2026-04-20 21:42 | -1.44840 | 119.17569 | 28238 ft | 441 kts | 21° |
| 2026-04-20 21:42 | -1.41983 | 119.18659 | 27685 ft | 437 kts | 22° |
| 2026-04-20 21:43 | -1.39154 | 119.19739 | 27137 ft | 434 kts | 22° |
| 2026-04-20 21:43 | -1.36347 | 119.20810 | 26606 ft | 430 kts | 22° |
| 2026-04-20 21:43 | -1.33558 | 119.21874 | 26076 ft | 427 kts | 22° |
| 2026-04-20 21:43 | -1.30797 | 119.22928 | 25532 ft | 425 kts | 22° |
| 2026-04-20 21:44 | -1.28037 | 119.23981 | 24996 ft | 423 kts | 22° |
| 2026-04-20 21:44 | -1.25290 | 119.25029 | 24466 ft | 422 kts | 21° |
| 2026-04-20 21:44 | -1.22553 | 119.26073 | 23929 ft | 420 kts | 21° |
| 2026-04-20 21:44 | -1.19825 | 119.27113 | 23398 ft | 419 kts | 21° |
| 2026-04-20 21:45 | -1.17108 | 119.28150 | 22788 ft | 417 kts | 21° |
| 2026-04-20 21:45 | -1.14413 | 119.29179 | 22249 ft | 413 kts | 21° |
| 2026-04-20 21:45 | -1.11740 | 119.30199 | 21736 ft | 410 kts | 21° |
| 2026-04-20 21:45 | -1.09083 | 119.31213 | 21213 ft | 407 kts | 21° |
| 2026-04-20 21:46 | -1.06450 | 119.32218 | 20715 ft | 404 kts | 21° |
| 2026-04-20 21:46 | -1.03836 | 119.33216 | 20212 ft | 401 kts | 21° |
| 2026-04-20 21:46 | -1.01237 | 119.34208 | 19722 ft | 399 kts | 21° |
| 2026-04-20 21:46 | -0.98653 | 119.35195 | 19218 ft | 397 kts | 21° |
| 2026-04-20 21:47 | -0.96077 | 119.36178 | 18720 ft | 396 kts | 21° |
| 2026-04-20 21:47 | -0.93511 | 119.37157 | 18226 ft | 394 kts | 21° |
| 2026-04-20 21:47 | -0.90951 | 119.38134 | 17663 ft | 393 kts | 21° |
| 2026-04-20 21:47 | -0.88405 | 119.39106 | 17155 ft | 390 kts | 21° |
| 2026-04-20 21:48 | -0.85879 | 119.40070 | 16655 ft | 387 kts | 21° |
| 2026-04-20 21:48 | -0.83371 | 119.41028 | 16165 ft | 384 kts | 21° |
| 2026-04-20 21:48 | -0.80880 | 119.41978 | 15691 ft | 382 kts | 21° |
| 2026-04-20 21:48 | -0.78410 | 119.42921 | 15205 ft | 379 kts | 21° |
| 2026-04-20 21:49 | -0.75955 | 119.43858 | 14723 ft | 377 kts | 21° |
| 2026-04-20 21:49 | -0.73527 | 119.44837 | 14236 ft | 375 kts | 28° |
| 2026-04-20 21:49 | -0.71492 | 119.46426 | 13775 ft | 372 kts | 49° |
| 2026-04-20 21:49 | -0.70104 | 119.48581 | 13257 ft | 368 kts | 66° |
| 2026-04-20 21:50 | -0.69062 | 119.50902 | 12787 ft | 364 kts | 67° |
| 2026-04-20 21:50 | -0.68055 | 119.53214 | 12312 ft | 362 kts | 67° |
| 2026-04-20 21:50 | -0.67055 | 119.55504 | 11904 ft | 357 kts | 67° |
| 2026-04-20 21:50 | -0.66061 | 119.57760 | 11463 ft | 354 kts | 66° |
| 2026-04-20 21:51 | -0.65065 | 119.59998 | 11034 ft | 351 kts | 66° |
| 2026-04-20 21:51 | -0.64086 | 119.62184 | 10594 ft | 348 kts | 66° |
| 2026-04-20 21:51 | -0.63098 | 119.64383 | 10154 ft | 346 kts | 66° |
| 2026-04-20 21:51 | -0.62120 | 119.66556 | 9905 ft | 336 kts | 66° |
| 2026-04-20 21:52 | -0.61184 | 119.68636 | 9899 ft | 320 kts | 66° |
| 2026-04-20 21:52 | -0.60290 | 119.70623 | 9818 ft | 308 kts | 66° |
| 2026-04-20 21:52 | -0.59586 | 119.72589 | 9709 ft | 294 kts | 83° |
| 2026-04-20 21:52 | -0.59722 | 119.74548 | 9525 ft | 279 kts | 107° |
| 2026-04-20 21:53 | -0.60584 | 119.76256 | 9086 ft | 276 kts | 126° |
| 2026-04-20 21:53 | -0.61937 | 119.77609 | 8548 ft | 277 kts | 146° |
| 2026-04-20 21:53 | -0.63645 | 119.78492 | 8088 ft | 276 kts | 155° |
| 2026-04-20 21:53 | -0.65398 | 119.79257 | 7652 ft | 274 kts | 155° |
| 2026-04-20 21:54 | -0.67103 | 119.79994 | 7522 ft | 259 kts | 155° |
| 2026-04-20 21:54 | -0.68714 | 119.80699 | 7304 ft | 249 kts | 155° |
| 2026-04-20 21:54 | -0.70289 | 119.81393 | 6950 ft | 245 kts | 155° |
| 2026-04-20 21:54 | -0.71848 | 119.82084 | 6443 ft | 247 kts | 155° |
| 2026-04-20 21:55 | -0.73419 | 119.82780 | 5830 ft | 248 kts | 154° |
| 2026-04-20 21:55 | -0.74996 | 119.83481 | 5167 ft | 249 kts | 154° |
| 2026-04-20 21:55 | -0.76580 | 119.84184 | 4495 ft | 250 kts | 154° |
| 2026-04-20 21:55 | -0.78172 | 119.84891 | 3818 ft | 250 kts | 154° |
| 2026-04-20 21:56 | -0.79737 | 119.85585 | 3301 ft | 238 kts | 154° |
| 2026-04-20 21:56 | -0.81192 | 119.86229 | 2883 ft | 220 kts | 154° |
| 2026-04-20 21:56 | -0.82543 | 119.86829 | 2465 ft | 207 kts | 154° |
| 2026-04-20 21:56 | -0.83836 | 119.87403 | 1972 ft | 199 kts | 154° |
| 2026-04-20 21:57 | -0.85074 | 119.87952 | 1527 ft | 190 kts | 154° |
| 2026-04-20 21:57 | -0.86224 | 119.88463 | 1280 ft | 172 kts | 154° |
| 2026-04-20 21:57 | -0.87261 | 119.88921 | 1116 ft | 160 kts | 155° |
| 2026-04-20 21:57 | -0.88270 | 119.89369 | 962 ft | 159 kts | 155° |
| 2026-04-20 21:58 | -0.89291 | 119.89819 | 687 ft | 161 kts | 154° |
| 2026-04-20 21:58 | -0.90304 | 119.90278 | 403 ft | 158 kts | 155° |
| 2026-04-20 21:58 | -0.91262 | 119.90701 | 275 ft | 131 kts | 155° |
| 2026-04-20 21:58 | -0.91781 | 119.90931 | 271 ft | 14 kts | 156° |
| 2026-04-20 21:59 | -0.91855 | 119.90943 | 269 ft | 9 kts | 208° |
| 2026-04-20 21:59 | -0.91886 | 119.90887 | 264 ft | 10 kts | 248° |
| 2026-04-20 21:59 | -0.91905 | 119.90822 | 263 ft | 10 kts | 282° |
| 2026-04-20 21:59 | -0.91853 | 119.90782 | 264 ft | 10 kts | 333° |
| 2026-04-20 22:00 | -0.91843 | 119.90732 | 266 ft | 0 kts | 245° |